Time;durP1;ratioP1;P1;durP2;ratioP2;P2;SDS_P1;SDS_P2;PMS_P1;PMS_P2;Temp;Humidity;BMP_temperature;BMP_pressure;BME280_temperature;BME280_humidity;BME280_pressure;Samples;Min_cycle;Max_cycle;Signal;HPM_P1;HPM_P2
2023/04/23 00:06:42;;;;;;;42.75;24.85;;;7.10;99.90;;;;;;20739953;28;20034;-55
2023/04/23 00:16:44;;;;;;;50.08;27.17;;;6.90;99.90;;;;;;20739290;28;20049;-55
2023/04/23 00:26:46;;;;;;;43.25;25.13;;;6.80;99.90;;;;;;20739316;28;20088;-51
2023/04/23 00:36:47;;;;;;;40.90;24.92;;;6.70;99.90;;;;;;20738607;28;20550;-52
2023/04/23 00:46:50;;;;;;;48.63;26.70;;;6.50;99.90;;;;;;20738280;28;20092;-54
2023/04/23 00:56:52;;;;;;;35.33;20.75;;;6.60;99.90;;;;;;20738109;28;20060;-54
2023/04/23 01:06:54;;;;;;;27.77;18.25;;;6.70;99.90;;;;;;20747059;28;20034;-54
2023/04/23 01:16:57;;;;;;;30.48;17.75;;;6.90;99.90;;;;;;20752601;28;20065;-61
2023/04/23 01:26:58;;;;;;;27.48;16.95;;;6.70;99.90;;;;;;20751854;28;20111;-51
2023/04/23 01:37:02;;;;;;;27.92;15.95;;;6.50;99.90;;;;;;20750931;28;20033;-51
2023/04/23 01:47:04;;;;;;;38.50;20.63;;;6.40;99.90;;;;;;20750412;28;20033;-54
2023/04/23 01:57:06;;;;;;;34.97;19.55;;;6.00;99.90;;;;;;20749881;28;20395;-52
2023/04/23 02:07:08;;;;;;;35.70;20.65;;;5.70;99.90;;;;;;20748646;28;20038;-52
2023/04/23 02:17:11;;;;;;;35.58;19.48;;;5.60;99.90;;;;;;20711614;28;20463;-52
2023/04/23 02:27:14;;;;;;;42.90;22.02;;;5.50;99.90;;;;;;20747586;28;20034;-51
2023/04/23 02:37:15;;;;;;;38.70;22.35;;;5.60;99.90;;;;;;20744947;28;20034;-48
2023/04/23 02:47:18;;;;;;;47.22;25.63;;;5.70;99.90;;;;;;20744161;28;20042;-53
2023/04/23 02:57:20;;;;;;;44.92;24.85;;;5.70;99.90;;;;;;20744311;28;20033;-53
2023/04/23 03:07:21;;;;;;;44.70;24.70;;;5.70;99.90;;;;;;20743817;28;20034;-52
2023/04/23 03:17:23;;;;;;;44.28;25.50;;;5.70;99.90;;;;;;20743039;28;20042;-50
2023/04/23 03:27:25;;;;;;;46.20;25.50;;;5.70;99.90;;;;;;20741880;28;20104;-61
2023/04/23 03:37:27;;;;;;;47.70;24.50;;;5.70;99.90;;;;;;20740628;28;20042;-49
2023/04/23 03:47:29;;;;;;;50.60;26.80;;;5.70;99.90;;;;;;20741367;28;20061;-53
2023/04/23 03:57:31;;;;;;;50.85;27.98;;;5.60;99.90;;;;;;20741731;28;20096;-52
2023/04/23 04:07:49;;;;;;;56.05;29.63;;;5.50;99.90;;;;;;20724961;28;20036;-51
2023/04/23 04:17:52;;;;;;;60.85;31.58;;;5.60;99.90;;;;;;20709313;28;20041;-52
2023/04/23 04:27:53;;;;;;;61.00;31.25;;;5.70;99.90;;;;;;20739741;28;20104;-50
2023/04/23 04:37:55;;;;;;;56.72;30.10;;;5.80;99.90;;;;;;20748251;28;20041;-61
2023/04/23 04:47:57;;;;;;;53.05;30.17;;;5.90;99.90;;;;;;20766174;28;20038;-52
2023/04/23 04:57:58;;;;;;;49.90;26.92;;;5.80;99.90;;;;;;20765432;28;20100;-52
2023/04/23 05:08:02;;;;;;;55.72;28.23;;;5.80;99.90;;;;;;20763843;28;20033;-61
2023/04/23 05:18:05;;;;;;;55.03;29.60;;;5.80;99.90;;;;;;20735453;28;20041;-52
2023/04/23 05:28:07;;;;;;;43.92;25.92;;;6.10;99.90;;;;;;20763890;28;20037;-52
2023/04/23 05:38:09;;;;;;;41.28;23.52;;;6.70;99.90;;;;;;20762949;28;20057;-52
2023/04/23 05:48:11;;;;;;;38.30;24.60;;;7.10;99.90;;;;;;20759138;28;20026;-50
2023/04/23 05:58:13;;;;;;;33.08;21.48;;;7.70;99.90;;;;;;20749684;28;20050;-53
2023/04/23 06:08:15;;;;;;;28.77;19.30;;;8.30;99.90;;;;;;20746728;28;20029;-52
2023/04/23 06:18:18;;;;;;;27.83;19.40;;;9.00;99.90;;;;;;20742848;28;20058;-63
2023/04/23 06:28:20;;;;;;;26.85;18.10;;;9.70;99.90;;;;;;20748098;28;20336;-51
2023/04/23 06:38:44;;;;;;;23.85;18.30;;;10.50;99.90;;;;;;20728181;28;20060;-52
2023/04/23 06:48:46;;;;;;;24.40;18.60;;;12.40;99.90;;;;;;20745332;28;20030;-66
2023/04/23 06:58:47;;;;;;;26.00;19.38;;;13.60;99.90;;;;;;20742357;28;20174;-62
2023/04/23 07:08:55;;;;;;;30.83;21.70;;;12.90;99.90;;;;;;20741124;28;20034;-51
2023/04/23 07:18:56;;;;;;;34.78;22.42;;;12.50;99.90;;;;;;20741818;28;20046;-50
2023/04/23 07:28:58;;;;;;;29.25;19.77;;;12.00;99.90;;;;;;20743573;28;20041;-50
2023/04/23 07:39:00;;;;;;;23.55;18.35;;;13.40;99.90;;;;;;20757395;28;20045;-50
2023/04/23 07:49:01;;;;;;;26.92;19.27;;;13.90;99.90;;;;;;20740919;28;20041;-51
2023/04/23 07:59:05;;;;;;;24.67;18.83;;;13.80;99.90;;;;;;20738590;28;20030;-64
2023/04/23 08:09:08;;;;;;;33.28;21.73;;;14.30;99.90;;;;;;20741389;28;20034;-51
2023/04/23 08:19:10;;;;;;;29.17;21.98;;;14.80;99.90;;;;;;20738703;28;20046;-51
2023/04/23 08:29:13;;;;;;;29.60;21.67;;;15.10;99.90;;;;;;20737670;28;20042;-63
2023/04/23 08:39:15;;;;;;;31.10;22.65;;;14.90;99.90;;;;;;20738108;28;20093;-64
2023/04/23 08:49:18;;;;;;;30.88;22.48;;;14.90;99.90;;;;;;20737814;28;20030;-51
2023/04/23 08:59:21;;;;;;;25.15;18.30;;;15.40;99.90;;;;;;20737656;28;20418;-51
2023/04/23 09:09:26;;;;;;;25.52;18.05;;;16.60;99.90;;;;;;20734831;28;20432;-52
2023/04/23 09:19:29;;;;;;;25.95;17.60;;;17.00;99.90;;;;;;20736832;28;20054;-64
2023/04/23 09:29:30;;;;;;;20.52;13.43;;;16.90;99.90;;;;;;20749461;28;20037;-47
2023/04/23 09:39:34;;;;;;;22.80;16.08;;;17.80;99.90;;;;;;20751343;28;20038;-62
2023/04/23 09:49:47;;;;;;;19.13;14.25;;;18.80;99.90;;;;;;20750879;28;20033;-57
2023/04/23 09:59:48;;;;;;;18.77;13.75;;;18.80;99.90;;;;;;20749502;28;20042;-62
2023/04/23 10:09:50;;;;;;;15.73;12.82;;;18.50;99.90;;;;;;20745471;28;20093;-62
2023/04/23 10:19:52;;;;;;;18.35;13.10;;;18.90;99.90;;;;;;20747756;28;20092;-62
2023/04/23 10:29:53;;;;;;;18.75;14.32;;;19.10;99.90;;;;;;20746311;28;20030;-63
2023/04/23 10:40:03;;;;;;;19.27;13.13;;;18.80;99.90;;;;;;20744843;28;20064;-64
2023/04/23 10:50:18;;;;;;;16.08;12.60;;;18.80;99.90;;;;;;20745664;28;20061;-63
2023/04/23 11:00:21;;;;;;;15.82;11.07;;;17.60;99.90;;;;;;20745218;28;20180;-56
2023/04/23 11:10:24;;;;;;;15.98;12.80;;;18.00;99.90;;;;;;20744161;28;20029;-64
2023/04/23 11:20:26;;;;;;;15.05;11.45;;;18.00;99.90;;;;;;20742946;28;20062;-64
2023/04/23 11:30:29;;;;;;;15.52;11.80;;;17.70;99.90;;;;;;20742683;28;20112;-63
2023/04/23 11:40:33;;;;;;;14.95;11.32;;;16.70;99.90;;;;;;20742595;28;20048;-63
2023/04/23 11:50:37;;;;;;;17.52;12.93;;;16.00;99.90;;;;;;20739521;28;20152;-62
2023/04/23 12:00:38;;;;;;;16.45;11.32;;;15.40;99.90;;;;;;20740110;28;20030;-62
2023/04/23 12:10:45;;;;;;;15.90;11.38;;;15.00;99.90;;;;;;20738355;28;20487;-62
2023/04/23 12:20:50;;;;;;;13.65;9.85;;;14.90;99.90;;;;;;20739773;28;20444;-64
2023/04/23 12:30:51;;;;;;;13.10;9.75;;;16.10;99.90;;;;;;20737444;28;20042;-65
2023/04/23 12:40:58;;;;;;;12.55;9.55;;;16.80;99.90;;;;;;20738736;28;20034;-65
2023/04/23 12:50:59;;;;;;;11.52;9.48;;;16.80;99.90;;;;;;20736997;28;20034;-66
2023/04/23 13:01:01;;;;;;;9.30;5.45;;;17.30;99.90;;;;;;20745194;28;20038;-65
2023/04/23 13:11:03;;;;;;;12.82;9.35;;;16.80;99.90;;;;;;20750725;28;20025;-65
2023/04/23 13:21:05;;;;;;;14.80;9.77;;;16.90;99.90;;;;;;20752450;28;20380;-65
2023/04/23 13:31:07;;;;;;;11.32;7.28;;;16.20;99.90;;;;;;20751864;28;20034;-63
2023/04/23 13:41:09;;;;;;;13.25;9.30;;;16.10;99.90;;;;;;20751247;28;20038;-51
2023/04/23 13:51:11;;;;;;;10.80;7.70;;;16.70;99.90;;;;;;20750308;28;20111;-66
2023/04/23 14:01:14;;;;;;;10.32;7.72;;;17.20;99.90;;;;;;20748072;28;20045;-62
2023/04/23 14:11:16;;;;;;;10.05;7.35;;;15.80;99.90;;;;;;20745162;28;20034;-62
2023/04/23 14:21:17;;;;;;;10.52;8.07;;;14.60;99.90;;;;;;20748002;28;20107;-62
2023/04/23 14:31:19;;;;;;;12.43;8.02;;;14.10;99.90;;;;;;20747006;28;20476;-63
2023/04/23 14:41:21;;;;;;;11.80;8.50;;;14.00;99.90;;;;;;20746976;28;20038;-63
2023/04/23 14:51:23;;;;;;;11.50;7.97;;;13.90;99.90;;;;;;20746629;28;20033;-52
2023/04/23 15:01:25;;;;;;;10.65;6.78;;;13.50;99.90;;;;;;20744991;28;20030;-50
2023/04/23 15:11:27;;;;;;;9.63;7.18;;;13.10;99.90;;;;;;20744515;28;20452;-52
2023/04/23 15:21:29;;;;;;;12.38;8.18;;;12.80;99.90;;;;;;20743542;28;20057;-51
2023/04/23 15:31:30;;;;;;;13.73;8.73;;;12.70;99.90;;;;;;20742790;28;20038;-52
2023/04/23 15:41:33;;;;;;;12.35;8.25;;;12.50;99.90;;;;;;20742468;28;20040;-53
2023/04/23 15:51:36;;;;;;;13.90;9.43;;;12.20;99.90;;;;;;20740354;28;20114;-62
2023/04/23 16:01:37;;;;;;;13.98;9.70;;;12.20;99.90;;;;;;20737976;28;20509;-52
2023/04/23 16:11:39;;;;;;;14.45;10.65;;;12.00;99.90;;;;;;20738904;28;20037;-51
2023/04/23 16:21:41;;;;;;;15.07;10.23;;;11.90;99.90;;;;;;20739362;28;20519;-53
2023/04/23 16:31:42;;;;;;;16.02;11.20;;;11.80;99.90;;;;;;20738042;28;20115;-53
2023/04/23 16:41:44;;;;;;;14.55;10.45;;;11.60;99.90;;;;;;20736853;28;20037;-62
2023/04/23 16:51:46;;;;;;;16.05;10.50;;;11.30;99.90;;;;;;20737952;28;20056;-62
2023/04/23 17:01:47;;;;;;;13.23;10.10;;;11.20;99.90;;;;;;20736569;28;20870;-49
2023/04/23 17:11:49;;;;;;;13.07;8.80;;;11.00;99.90;;;;;;20735499;28;20034;-52
2023/04/23 17:21:50;;;;;;;11.98;8.88;;;10.90;99.90;;;;;;20735413;28;20046;-53
2023/04/23 17:31:52;;;;;;;10.75;8.68;;;10.80;99.90;;;;;;20735314;28;20487;-62
2023/04/23 17:41:56;;;;;;;10.85;8.82;;;10.70;99.90;;;;;;20734355;28;20385;-61
2023/04/23 17:51:58;;;;;;;11.70;8.77;;;10.60;99.90;;;;;;20750216;28;20113;-61
2023/04/23 18:02:01;;;;;;;13.43;8.70;;;10.50;99.90;;;;;;20749904;28;20042;-61
2023/04/23 18:12:03;;;;;;;11.68;8.80;;;10.40;99.90;;;;;;20749304;28;20038;-61
2023/04/23 18:22:05;;;;;;;12.45;9.45;;;10.40;99.90;;;;;;20748344;28;20546;-51
2023/04/23 18:32:07;;;;;;;12.55;9.63;;;10.30;99.90;;;;;;20747084;28;20040;-52
2023/04/23 18:42:09;;;;;;;13.05;9.50;;;10.30;99.90;;;;;;20745363;28;20092;-52
2023/04/23 18:52:11;;;;;;;15.38;10.23;;;10.20;99.90;;;;;;20744549;28;20041;-53
2023/04/23 19:02:13;;;;;;;15.63;10.30;;;10.20;99.90;;;;;;20745533;28;20081;-53
2023/04/23 19:12:15;;;;;;;14.95;10.07;;;10.10;99.90;;;;;;20744752;28;20033;-52
2023/04/23 19:22:16;;;;;;;16.83;11.30;;;10.00;99.90;;;;;;20743539;28;20133;-61
2023/04/23 19:32:18;;;;;;;18.20;10.57;;;10.00;99.90;;;;;;20740835;28;20034;-52
2023/04/23 19:42:20;;;;;;;14.68;10.50;;;10.00;99.90;;;;;;20742259;28;20475;-62
2023/04/23 19:52:24;;;;;;;15.93;10.73;;;10.00;99.90;;;;;;20756507;28;20112;-61
2023/04/23 20:02:26;;;;;;;14.23;10.23;;;9.90;99.90;;;;;;20739682;28;20045;-61
2023/04/23 20:12:28;;;;;;;17.67;12.32;;;9.80;99.90;;;;;;20738442;28;20033;-50
2023/04/23 20:22:31;;;;;;;18.77;13.85;;;9.80;99.90;;;;;;20739466;28;20053;-61
2023/04/23 20:32:33;;;;;;;18.80;12.70;;;9.70;99.90;;;;;;20738599;28;20061;-53
2023/04/23 20:42:37;;;;;;;22.00;14.20;;;9.70;99.90;;;;;;20738989;28;20029;-51
2023/04/23 20:52:39;;;;;;;17.35;13.73;;;9.80;99.90;;;;;;20738253;28;20049;-61
2023/04/23 21:02:41;;;;;;;20.27;13.27;;;9.80;99.90;;;;;;20736950;28;20033;-52
2023/04/23 21:12:44;;;;;;;17.20;13.00;;;9.80;99.90;;;;;;20737861;28;20041;-61
2023/04/23 21:22:46;;;;;;;17.60;12.27;;;9.80;99.90;;;;;;20745707;28;20049;-61
2023/04/23 21:32:50;;;;;;;17.35;12.57;;;9.70;99.90;;;;;;20751813;28;20034;-52
2023/04/23 21:42:52;;;;;;;16.13;11.75;;;9.60;99.90;;;;;;20751574;28;20503;-52
2023/04/23 21:52:57;;;;;;;19.13;13.45;;;9.50;99.90;;;;;;20751482;28;20034;-62
2023/04/23 22:02:58;;;;;;;16.88;11.80;;;9.50;99.90;;;;;;20751174;28;20042;-59
2023/04/23 22:13:00;;;;;;;15.90;10.75;;;9.20;99.90;;;;;;20748723;28;20045;-49
2023/04/23 22:23:02;;;;;;;14.10;10.93;;;9.00;99.90;;;;;;20749174;28;20037;-52
2023/04/23 22:33:04;;;;;;;20.38;13.35;;;8.90;99.90;;;;;;20746644;28;20034;-60
2023/04/23 22:43:06;;;;;;;24.83;16.20;;;8.80;99.90;;;;;;20748054;28;20037;-57
2023/04/23 22:53:07;;;;;;;20.27;14.32;;;8.70;99.90;;;;;;20745967;28;20030;-53
2023/04/23 23:03:09;;;;;;;17.75;12.88;;;8.60;99.90;;;;;;20745546;28;20034;-52
2023/04/23 23:13:10;;;;;;;18.02;12.57;;;8.50;99.90;;;;;;20744611;28;20053;-56
2023/04/23 23:23:12;;;;;;;18.65;13.00;;;8.30;99.90;;;;;;20742554;28;20458;-53
2023/04/23 23:33:15;;;;;;;14.88;11.15;;;8.30;99.90;;;;;;20742945;28;20053;-60
2023/04/23 23:43:17;;;;;;;16.92;11.55;;;8.30;99.90;;;;;;20742212;28;20030;-59
2023/04/23 23:53:18;;;;;;;13.40;9.88;;;8.20;99.90;;;;;;20741342;28;20030;-58
